Time;durP1;ratioP1;P1;durP2;ratioP2;P2;SDS_P1;SDS_P2;PMS_P1;PMS_P2;Temp;Humidity;BMP_temperature;BMP_pressure;BME280_temperature;BME280_humidity;BME280_pressure;Samples;Min_cycle;Max_cycle;Signal;HPM_P1;HPM_P2
2024/01/16 00:00:44;;;;;;;4.13;2.40;;;16.60;33.10;;;;;;5151613;27;45325;-72
2024/01/16 00:03:11;;;;;;;2.42;1.90;;;16.60;33.00;;;;;;5151641;27;45445;-72
2024/01/16 00:05:38;;;;;;;2.70;2.05;;;16.60;33.00;;;;;;5151158;27;45517;-72
2024/01/16 00:08:05;;;;;;;2.80;2.00;;;16.60;33.00;;;;;;5150683;27;45244;-71
2024/01/16 00:10:32;;;;;;;2.90;2.10;;;16.60;33.00;;;;;;5150808;27;45268;-71
2024/01/16 00:12:59;;;;;;;2.22;1.85;;;16.50;33.00;;;;;;5151273;27;45312;-72
2024/01/16 00:15:25;;;;;;;2.72;2.13;;;16.50;33.00;;;;;;5150898;27;46693;-71
2024/01/16 00:17:54;;;;;;;2.72;2.22;;;16.50;33.00;;;;;;5151212;27;45242;-72
2024/01/16 00:20:22;;;;;;;2.55;2.00;;;16.50;32.90;;;;;;5148396;27;45279;-72
2024/01/16 00:22:48;;;;;;;3.03;1.98;;;16.50;32.90;;;;;;5151115;27;45579;-72
2024/01/16 00:25:17;;;;;;;3.60;2.03;;;16.50;32.90;;;;;;5150684;27;45473;-72
2024/01/16 00:27:44;;;;;;;2.42;2.10;;;16.50;32.90;;;;;;5150886;27;45300;-72
2024/01/16 00:30:12;;;;;;;2.42;1.92;;;16.50;33.60;;;;;;5151093;27;45313;-73
2024/01/16 00:32:39;;;;;;;2.42;1.85;;;16.40;33.00;;;;;;5150869;27;45305;-72
2024/01/16 00:35:13;;;;;;;2.97;2.08;;;16.40;32.90;;;;;;5150653;27;47313;-72
2024/01/16 00:37:39;;;;;;;2.88;1.92;;;16.50;32.90;;;;;;5150544;27;45325;-72
2024/01/16 00:40:08;;;;;;;2.05;1.80;;;16.40;32.90;;;;;;5151062;27;45364;-72
2024/01/16 00:42:35;;;;;;;2.22;1.80;;;16.40;32.90;;;;;;5150609;27;45429;-72
2024/01/16 00:45:04;;;;;;;3.83;2.30;;;16.40;32.90;;;;;;5150327;27;45721;-72
2024/01/16 00:47:31;;;;;;;2.97;1.83;;;16.40;32.90;;;;;;5150546;27;45302;-72
2024/01/16 00:49:58;;;;;;;2.60;1.92;;;16.40;32.90;;;;;;5150782;27;45407;-72
2024/01/16 00:52:27;;;;;;;1.90;1.75;;;16.40;32.90;;;;;;5150999;27;45295;-73
2024/01/16 00:54:54;;;;;;;2.40;1.80;;;16.40;32.90;;;;;;5149934;27;45415;-72
2024/01/16 00:57:21;;;;;;;2.45;1.90;;;16.30;32.80;;;;;;5147134;27;45297;-72
2024/01/16 00:59:47;;;;;;;1.80;1.70;;;16.30;32.80;;;;;;5150561;27;45353;-72
2024/01/16 01:02:15;;;;;;;2.75;1.70;;;16.30;32.80;;;;;;5150495;27;45343;-72
2024/01/16 01:04:42;;;;;;;2.17;1.80;;;16.30;32.80;;;;;;5150124;27;45417;-72
2024/01/16 01:07:09;;;;;;;2.28;1.85;;;16.30;32.80;;;;;;5150459;27;45383;-72
2024/01/16 01:09:37;;;;;;;2.58;1.98;;;16.20;32.70;;;;;;5150209;27;45414;-72
2024/01/16 01:12:05;;;;;;;2.88;2.03;;;16.20;32.80;;;;;;5150560;27;45246;-72
2024/01/16 01:14:31;;;;;;;2.33;2.10;;;16.20;32.70;;;;;;5149685;27;46259;-72
2024/01/16 01:16:58;;;;;;;2.70;2.15;;;16.30;32.80;;;;;;5149920;27;45318;-72
2024/01/16 01:19:25;;;;;;;2.75;2.30;;;16.30;32.80;;;;;;5149788;27;45412;-72
2024/01/16 01:21:51;;;;;;;2.80;2.00;;;16.20;32.70;;;;;;5150181;27;45304;-72
2024/01/16 01:24:18;;;;;;;2.20;1.85;;;16.20;32.70;;;;;;5149917;27;45485;-72
2024/01/16 01:26:47;;;;;;;2.92;2.00;;;16.20;32.70;;;;;;5150050;27;45261;-72
2024/01/16 01:29:12;;;;;;;1.70;1.60;;;16.20;32.70;;;;;;5150153;27;45371;-72
2024/01/16 01:31:39;;;;;;;2.05;1.70;;;16.10;32.70;;;;;;5150082;27;45424;-72
2024/01/16 01:34:07;;;;;;;3.75;1.95;;;16.10;32.70;;;;;;5149662;27;47102;-72
2024/01/16 01:36:34;;;;;;;1.92;1.63;;;16.20;32.70;;;;;;5149571;27;45388;-71
2024/01/16 01:39:01;;;;;;;2.45;1.60;;;16.20;32.60;;;;;;5149000;27;45317;-72
2024/01/16 01:41:28;;;;;;;2.05;1.67;;;16.10;32.60;;;;;;5149784;27;45310;-72
2024/01/16 01:43:56;;;;;;;4.22;1.65;;;16.10;32.60;;;;;;5149478;27;45219;-72
2024/01/16 01:46:23;;;;;;;2.08;1.88;;;16.10;32.50;;;;;;5150034;27;45322;-72
2024/01/16 01:48:49;;;;;;;3.47;1.88;;;16.10;32.60;;;;;;5149700;27;45297;-72
2024/01/16 01:51:18;;;;;;;2.53;2.13;;;16.00;32.60;;;;;;5149767;27;45293;-72
2024/01/16 01:53:45;;;;;;;1.90;1.30;;;16.00;32.60;;;;;;5149177;27;45468;-72
2024/01/16 01:56:14;;;;;;;2.05;1.88;;;16.00;32.60;;;;;;5149502;27;45333;-72
2024/01/16 01:58:41;;;;;;;1.98;1.75;;;16.00;32.50;;;;;;5149434;27;45286;-72
2024/01/16 02:01:10;;;;;;;2.95;1.50;;;16.00;32.50;;;;;;5149783;27;45405;-72
2024/01/16 02:03:39;;;;;;;2.10;1.90;;;16.00;32.50;;;;;;5149308;27;45415;-72
2024/01/16 02:06:07;;;;;;;1.75;1.52;;;16.00;32.50;;;;;;5149411;27;45132;-72
2024/01/16 02:08:33;;;;;;;3.50;1.40;;;16.00;32.50;;;;;;5146840;27;45214;-72
2024/01/16 02:11:00;;;;;;;2.05;1.42;;;15.90;32.50;;;;;;5149462;27;45297;-72
2024/01/16 02:13:27;;;;;;;2.35;1.90;;;16.00;32.50;;;;;;5145396;27;45410;-71
2024/01/16 02:15:54;;;;;;;2.65;2.08;;;15.90;32.40;;;;;;5149308;27;45325;-72
2024/01/16 02:18:22;;;;;;;1.67;1.58;;;15.90;32.40;;;;;;5149613;27;45315;-71
2024/01/16 02:20:49;;;;;;;2.17;1.50;;;15.90;32.40;;;;;;5149380;27;45284;-72
2024/01/16 02:23:16;;;;;;;2.65;1.70;;;15.90;32.40;;;;;;5148094;27;46401;-72
2024/01/16 02:25:44;;;;;;;1.50;1.40;;;15.90;32.30;;;;;;5148965;27;45391;-72
2024/01/16 02:28:11;;;;;;;2.13;1.85;;;15.90;32.30;;;;;;5149124;27;45259;-72
2024/01/16 02:30:38;;;;;;;2.10;1.90;;;15.90;32.40;;;;;;5149247;27;45340;-72
2024/01/16 02:33:05;;;;;;;1.60;1.50;;;15.80;32.40;;;;;;5148856;27;46592;-72
2024/01/16 02:35:32;;;;;;;1.50;1.40;;;15.90;32.40;;;;;;5148684;27;45297;-72
2024/01/16 02:38:00;;;;;;;1.60;1.50;;;15.90;32.40;;;;;;5149010;27;45222;-72
2024/01/16 02:40:27;;;;;;;1.27;1.17;;;15.80;32.30;;;;;;5149476;27;45298;-72
2024/01/16 02:42:55;;;;;;;1.65;1.55;;;15.80;32.30;;;;;;5148694;27;45367;-72
2024/01/16 02:45:23;;;;;;;1.92;1.60;;;15.80;32.40;;;;;;5148753;27;45388;-71
2024/01/16 02:47:49;;;;;;;2.00;1.27;;;15.80;32.40;;;;;;5148696;27;45408;-72
2024/01/16 02:50:17;;;;;;;1.63;1.20;;;15.70;32.30;;;;;;5149091;27;45259;-71
2024/01/16 02:52:43;;;;;;;1.67;1.33;;;15.70;32.30;;;;;;5148357;27;47119;-72
2024/01/16 02:55:10;;;;;;;1.90;1.38;;;15.70;32.20;;;;;;5148548;27;45446;-72
2024/01/16 02:57:37;;;;;;;1.85;1.50;;;15.80;32.30;;;;;;5149102;27;45278;-72
2024/01/16 03:00:07;;;;;;;1.88;1.70;;;15.80;32.20;;;;;;5148804;27;45414;-72
2024/01/16 03:02:34;;;;;;;1.30;1.20;;;15.70;32.20;;;;;;5145751;27;45379;-72
2024/01/16 03:05:03;;;;;;;2.10;1.65;;;15.70;32.20;;;;;;5148420;27;45511;-72
2024/01/16 03:07:30;;;;;;;2.40;1.50;;;15.70;32.20;;;;;;5148594;27;45293;-72
2024/01/16 03:09:57;;;;;;;1.67;1.58;;;15.70;32.30;;;;;;5148659;27;45303;-71
2024/01/16 03:12:23;;;;;;;1.83;1.50;;;15.70;32.30;;;;;;5145641;27;45315;-71
2024/01/16 03:14:50;;;;;;;1.75;1.38;;;15.70;32.20;;;;;;5147556;27;45356;-72
2024/01/16 03:17:18;;;;;;;1.92;1.50;;;15.70;32.20;;;;;;5148475;27;45348;-72
2024/01/16 03:19:45;;;;;;;2.85;1.60;;;15.70;32.20;;;;;;5148604;27;45411;-72
2024/01/16 03:22:12;;;;;;;1.70;1.60;;;15.70;32.20;;;;;;5148122;27;46799;-72
2024/01/16 03:24:39;;;;;;;1.88;1.50;;;15.60;32.10;;;;;;5145328;27;45378;-72
2024/01/16 03:27:06;;;;;;;1.40;1.30;;;15.60;32.10;;;;;;5151744;27;45175;-72
2024/01/16 03:29:33;;;;;;;1.40;1.30;;;15.60;32.10;;;;;;5152522;27;45431;-71
2024/01/16 03:32:00;;;;;;;2.25;1.48;;;15.60;32.10;;;;;;5152438;27;45431;-71
2024/01/16 03:34:29;;;;;;;1.30;1.20;;;15.60;32.10;;;;;;5151728;27;45292;-71
2024/01/16 03:36:56;;;;;;;1.63;1.38;;;15.60;32.70;;;;;;5151973;27;45247;-72
2024/01/16 03:39:23;;;;;;;1.60;1.35;;;15.60;32.10;;;;;;5152166;27;45439;-72
2024/01/16 03:41:50;;;;;;;2.00;1.60;;;15.60;32.10;;;;;;5151954;27;46694;-72
2024/01/16 03:44:17;;;;;;;1.90;1.42;;;15.50;32.10;;;;;;5152166;27;45366;-71
2024/01/16 03:46:44;;;;;;;1.55;1.25;;;15.50;32.10;;;;;;5152214;27;45302;-71
2024/01/16 03:49:10;;;;;;;1.45;1.10;;;15.60;32.10;;;;;;5152073;27;45232;-71
2024/01/16 03:51:39;;;;;;;1.85;1.40;;;15.60;32.10;;;;;;5151594;27;45654;-71
2024/01/16 03:54:05;;;;;;;1.55;1.45;;;15.60;32.00;;;;;;5151740;27;45349;-71
2024/01/16 03:56:32;;;;;;;2.00;1.20;;;15.60;32.00;;;;;;5151019;27;45194;-72
2024/01/16 03:58:59;;;;;;;1.50;1.40;;;15.50;32.00;;;;;;5151654;27;45204;-71
2024/01/16 04:01:32;;;;;;;1.70;1.60;;;15.50;32.00;;;;;;5151162;27;46356;-71
2024/01/16 04:03:59;;;;;;;1.90;1.70;;;15.50;32.00;;;;;;5151186;27;45253;-71
2024/01/16 04:06:26;;;;;;;2.13;1.35;;;15.50;32.00;;;;;;5151533;27;45198;-72
2024/01/16 04:08:54;;;;;;;1.20;1.10;;;15.50;32.00;;;;;;5151678;27;45247;-72
2024/01/16 04:11:21;;;;;;;1.55;1.33;;;15.50;32.00;;;;;;5151561;27;46396;-72
2024/01/16 04:13:48;;;;;;;1.38;1.10;;;15.50;31.90;;;;;;5151484;27;45328;-72
2024/01/16 04:16:14;;;;;;;1.52;1.35;;;15.60;31.90;;;;;;5151765;27;45273;-72
2024/01/16 04:18:43;;;;;;;1.65;1.55;;;15.60;31.70;;;;;;5151847;27;45654;-72
2024/01/16 04:21:10;;;;;;;1.48;1.38;;;15.70;31.60;;;;;;5151245;27;45300;-72
2024/01/16 04:23:37;;;;;;;3.35;1.35;;;15.70;31.50;;;;;;5151434;27;45296;-72
2024/01/16 04:26:05;;;;;;;1.77;1.40;;;15.80;31.40;;;;;;5151459;27;45297;-72
2024/01/16 04:28:32;;;;;;;1.35;1.25;;;15.90;31.20;;;;;;5151667;27;45480;-72
2024/01/16 04:30:59;;;;;;;1.20;1.00;;;16.00;31.20;;;;;;5150787;27;45381;-72
2024/01/16 04:33:26;;;;;;;1.20;0.77;;;16.10;31.10;;;;;;5151251;27;45295;-72
2024/01/16 04:35:56;;;;;;;1.80;1.20;;;16.10;30.90;;;;;;5150064;27;45175;-72
2024/01/16 04:38:23;;;;;;;1.23;1.13;;;16.20;30.70;;;;;;5150672;27;45568;-72
2024/01/16 04:40:50;;;;;;;2.08;1.20;;;16.30;30.60;;;;;;5151234;27;45414;-73
2024/01/16 04:43:18;;;;;;;1.25;1.15;;;16.40;30.40;;;;;;5153292;27;45348;-72
2024/01/16 04:45:46;;;;;;;2.22;1.08;;;16.50;30.30;;;;;;5150255;27;45412;-72
2024/01/16 04:48:12;;;;;;;1.60;1.17;;;16.60;30.20;;;;;;5151155;27;45445;-72
2024/01/16 04:50:39;;;;;;;2.53;1.25;;;16.70;30.10;;;;;;5150775;27;47626;-72
2024/01/16 04:53:06;;;;;;;1.30;1.20;;;16.80;30.00;;;;;;5150415;27;45536;-72
2024/01/16 04:55:33;;;;;;;1.02;0.95;;;16.80;29.90;;;;;;5150567;27;45392;-72
2024/01/16 04:58:00;;;;;;;2.13;1.20;;;16.90;29.90;;;;;;5150943;27;45482;-72
2024/01/16 05:00:28;;;;;;;1.45;1.00;;;16.90;29.80;;;;;;5150305;27;46399;-72
2024/01/16 05:02:55;;;;;;;0.88;0.88;;;17.00;29.70;;;;;;5150510;27;45296;-73
2024/01/16 05:05:28;;;;;;;1.45;1.15;;;17.00;29.70;;;;;;5150410;27;45281;-72
2024/01/16 05:07:55;;;;;;;0.98;0.98;;;17.10;30.00;;;;;;5150800;27;45333;-72
2024/01/16 05:10:22;;;;;;;2.00;1.00;;;17.10;29.50;;;;;;5150348;27;46414;-72
2024/01/16 05:12:49;;;;;;;2.00;1.15;;;17.20;29.50;;;;;;5148055;27;45336;-72
2024/01/16 05:15:16;;;;;;;2.20;1.23;;;17.20;29.40;;;;;;5150393;27;45307;-72
2024/01/16 05:17:44;;;;;;;0.80;0.80;;;17.20;29.40;;;;;;5150760;27;45442;-72
2024/01/16 05:20:11;;;;;;;2.85;1.38;;;17.30;29.30;;;;;;5150239;27;46554;-72
2024/01/16 05:22:39;;;;;;;0.80;0.80;;;17.30;29.30;;;;;;5149893;27;45276;-72
2024/01/16 05:25:08;;;;;;;1.48;0.80;;;17.40;29.20;;;;;;5150103;27;45164;-72
2024/01/16 05:27:34;;;;;;;1.10;1.08;;;17.40;29.20;;;;;;5149460;27;45414;-71
2024/01/16 05:30:01;;;;;;;1.08;0.98;;;17.50;29.10;;;;;;5149358;27;46554;-71
2024/01/16 05:32:28;;;;;;;1.55;1.10;;;17.50;29.10;;;;;;5149774;27;45201;-71
2024/01/16 05:35:02;;;;;;;1.85;1.10;;;17.50;29.10;;;;;;5149668;27;45301;-71
2024/01/16 05:37:29;;;;;;;1.10;1.10;;;17.50;29.10;;;;;;5149686;27;45332;-71
2024/01/16 05:39:57;;;;;;;1.58;1.05;;;17.50;29.10;;;;;;5149385;27;46402;-71
2024/01/16 05:42:24;;;;;;;1.15;0.90;;;17.60;29.10;;;;;;5149069;27;45583;-71
2024/01/16 05:44:53;;;;;;;1.48;0.93;;;17.60;29.00;;;;;;5150395;27;45441;-71
2024/01/16 05:47:20;;;;;;;1.77;1.00;;;17.60;29.00;;;;;;5154318;27;45603;-71
2024/01/16 05:49:47;;;;;;;1.17;0.90;;;17.70;28.90;;;;;;5149383;27;45308;-71
2024/01/16 05:52:15;;;;;;;1.95;1.00;;;17.70;28.90;;;;;;5149782;27;45282;-71
2024/01/16 05:54:42;;;;;;;2.03;1.00;;;17.70;29.00;;;;;;5149693;27;45323;-72
2024/01/16 05:57:08;;;;;;;1.00;0.95;;;17.70;28.90;;;;;;5150086;27;45388;-72
2024/01/16 05:59:35;;;;;;;1.10;1.00;;;17.70;28.90;;;;;;5149485;27;45453;-71
2024/01/16 06:02:02;;;;;;;1.70;0.88;;;17.80;28.90;;;;;;5149660;27;45275;-72
2024/01/16 06:04:29;;;;;;;1.02;0.80;;;17.80;28.90;;;;;;5149723;27;45373;-72
2024/01/16 06:06:56;;;;;;;1.17;1.08;;;17.80;28.80;;;;;;5149980;27;45400;-72
2024/01/16 06:09:24;;;;;;;1.23;0.80;;;17.80;28.70;;;;;;5149357;27;46674;-72
2024/01/16 06:11:51;;;;;;;0.90;0.90;;;17.90;28.70;;;;;;5149152;27;45282;-71
2024/01/16 06:14:21;;;;;;;1.15;0.90;;;17.90;28.70;;;;;;5148883;27;45265;-72
2024/01/16 06:16:48;;;;;;;0.75;0.75;;;17.90;28.60;;;;;;5149739;27;45567;-72
2024/01/16 06:19:15;;;;;;;1.85;1.00;;;17.90;28.50;;;;;;5149499;27;45474;-72
2024/01/16 06:21:42;;;;;;;1.52;0.90;;;17.90;28.50;;;;;;5149157;27;45330;-72
2024/01/16 06:24:11;;;;;;;0.90;0.90;;;17.90;28.50;;;;;;5149264;27;45365;-72
2024/01/16 06:26:39;;;;;;;2.65;0.95;;;18.00;28.50;;;;;;5149298;27;45559;-72
2024/01/16 06:29:06;;;;;;;1.25;1.00;;;18.00;28.50;;;;;;5148793;27;46405;-72
2024/01/16 06:31:33;;;;;;;0.98;0.77;;;18.00;28.50;;;;;;5148963;27;45325;-72
2024/01/16 06:34:00;;;;;;;0.80;0.70;;;18.00;28.50;;;;;;5149092;27;45305;-72
2024/01/16 06:36:26;;;;;;;1.13;0.90;;;18.00;28.50;;;;;;5148938;27;45330;-72
2024/01/16 06:38:54;;;;;;;1.10;1.00;;;18.00;28.40;;;;;;5148661;27;46326;-72
2024/01/16 06:41:20;;;;;;;1.30;1.00;;;18.00;28.40;;;;;;5148440;27;45134;-72
2024/01/16 06:43:49;;;;;;;1.38;0.90;;;18.00;28.40;;;;;;5148823;27;45348;-72
2024/01/16 06:46:16;;;;;;;1.13;0.90;;;18.00;28.40;;;;;;5149181;27;45354;-72
2024/01/16 06:48:42;;;;;;;2.50;0.98;;;18.00;28.40;;;;;;5148555;27;45373;-72
2024/01/16 06:51:10;;;;;;;1.75;1.10;;;18.00;28.30;;;;;;5148669;27;45268;-72
2024/01/16 06:53:37;;;;;;;1.05;0.70;;;18.10;28.30;;;;;;5148734;27;45256;-72
2024/01/16 06:56:04;;;;;;;1.65;0.90;;;18.10;28.30;;;;;;5148618;27;45312;-70
2024/01/16 06:58:31;;;;;;;0.90;0.80;;;18.10;28.20;;;;;;5147506;27;46686;-72
2024/01/16 07:01:00;;;;;;;1.02;1.00;;;18.10;28.20;;;;;;5152091;27;45425;-74
2024/01/16 07:03:27;;;;;;;2.88;0.93;;;18.10;28.20;;;;;;5151786;27;45162;-71
2024/01/16 07:05:54;;;;;;;2.38;0.90;;;18.20;28.10;;;;;;5146559;27;45545;-72
2024/01/16 07:08:21;;;;;;;0.90;0.90;;;18.20;28.10;;;;;;5150109;27;46393;-72
2024/01/16 07:10:48;;;;;;;0.70;0.70;;;18.10;28.00;;;;;;5146325;27;45447;-74
2024/01/16 07:13:14;;;;;;;2.22;0.90;;;18.10;28.10;;;;;;5147623;27;45378;-73
2024/01/16 07:15:41;;;;;;;1.23;0.85;;;18.20;28.10;;;;;;5145828;27;45162;-69
2024/01/16 07:18:10;;;;;;;1.02;0.90;;;18.20;28.10;;;;;;5144795;27;46599;-75
2024/01/16 07:20:36;;;;;;;3.10;1.20;;;18.20;28.10;;;;;;5143219;27;45364;-73
2024/01/16 07:23:04;;;;;;;1.17;0.90;;;18.20;28.00;;;;;;5138410;27;45560;-73
2024/01/16 07:25:31;;;;;;;2.05;1.00;;;18.20;28.00;;;;;;5145714;27;45492;-73
2024/01/16 07:27:58;;;;;;;1.05;0.80;;;18.20;27.90;;;;;;5149829;27;46459;-74
2024/01/16 07:30:25;;;;;;;0.80;0.80;;;18.30;28.00;;;;;;5144949;27;45468;-72
2024/01/16 07:32:53;;;;;;;1.23;0.82;;;18.30;27.90;;;;;;5149680;27;45637;-74
2024/01/16 07:35:21;;;;;;;2.90;1.00;;;18.30;27.90;;;;;;5146990;27;45485;-73
2024/01/16 07:37:48;;;;;;;0.70;0.70;;;18.30;27.90;;;;;;5149503;27;46387;-73
2024/01/16 07:40:16;;;;;;;1.05;1.05;;;18.30;27.90;;;;;;5146038;27;45327;-71
2024/01/16 07:42:45;;;;;;;1.05;0.90;;;18.30;27.90;;;;;;5128569;27;45637;-73
2024/01/16 07:45:12;;;;;;;1.10;1.02;;;18.30;27.90;;;;;;5148772;27;45387;-71
2024/01/16 07:47:39;;;;;;;0.88;0.80;;;18.40;27.90;;;;;;5149288;27;46440;-73
2024/01/16 07:50:06;;;;;;;1.23;0.93;;;18.30;27.90;;;;;;5149271;27;45654;-72
2024/01/16 07:52:35;;;;;;;1.27;0.90;;;18.30;27.90;;;;;;5145211;27;45576;-72
2024/01/16 07:55:04;;;;;;;1.17;1.00;;;18.40;27.90;;;;;;5148056;27;45414;-73
2024/01/16 07:57:30;;;;;;;1.20;1.10;;;18.40;27.90;;;;;;5130177;27;45461;-72
2024/01/16 07:59:57;;;;;;;1.60;1.10;;;18.30;27.80;;;;;;5147880;27;45513;-70
2024/01/16 08:02:30;;;;;;;1.73;1.10;;;18.40;27.90;;;;;;5147930;27;45511;-74
2024/01/16 08:04:56;;;;;;;2.55;1.30;;;18.40;28.00;;;;;;5149910;27;45505;-73
2024/01/16 08:07:23;;;;;;;1.67;1.10;;;18.40;28.00;;;;;;5145403;27;45596;-71
2024/01/16 08:09:51;;;;;;;1.58;1.20;;;18.40;27.90;;;;;;5146506;27;45491;-74
2024/01/16 08:12:18;;;;;;;2.05;1.58;;;18.40;27.90;;;;;;5142778;27;45351;-72
2024/01/16 08:14:45;;;;;;;2.22;1.45;;;18.40;27.90;;;;;;5148740;27;45484;-73
2024/01/16 08:17:12;;;;;;;1.67;1.30;;;18.50;27.90;;;;;;5144173;27;46481;-72
2024/01/16 08:19:39;;;;;;;4.75;1.70;;;18.50;27.80;;;;;;5146688;27;45529;-74
2024/01/16 08:22:06;;;;;;;1.40;1.20;;;18.50;27.80;;;;;;5134086;27;45424;-75
2024/01/16 08:24:33;;;;;;;1.77;1.23;;;18.50;27.80;;;;;;5146077;27;45280;-73
2024/01/16 08:27:02;;;;;;;2.15;1.38;;;18.50;27.80;;;;;;5147442;27;46646;-72
2024/01/16 08:29:29;;;;;;;4.43;1.58;;;18.60;27.80;;;;;;5148880;27;45442;-72
2024/01/16 08:31:56;;;;;;;5.47;1.52;;;18.50;27.70;;;;;;5147515;27;45410;-72
2024/01/16 08:34:23;;;;;;;3.15;1.85;;;18.60;27.70;;;;;;5147597;27;45547;-73
2024/01/16 08:36:50;;;;;;;3.30;1.70;;;18.60;27.60;;;;;;5143339;27;46539;-73
2024/01/16 08:39:17;;;;;;;3.08;1.98;;;18.50;27.60;;;;;;5145254;27;45388;-72
2024/01/16 08:41:45;;;;;;;2.15;1.48;;;18.50;27.60;;;;;;5144376;27;45387;-73
2024/01/16 08:44:14;;;;;;;3.88;1.50;;;18.60;27.80;;;;;;5147097;27;45291;-70
2024/01/16 08:46:41;;;;;;;2.60;1.40;;;18.60;27.70;;;;;;5142072;27;46570;-73
2024/01/16 08:49:09;;;;;;;2.78;1.38;;;18.60;27.70;;;;;;5135886;27;45292;-73
2024/01/16 08:51:36;;;;;;;4.65;1.60;;;18.70;27.70;;;;;;5148254;27;45346;-73
2024/01/16 08:54:02;;;;;;;3.88;1.60;;;18.70;27.70;;;;;;5147666;27;45483;-73
2024/01/16 08:56:29;;;;;;;4.82;1.83;;;18.70;27.70;;;;;;5143029;27;45290;-71
2024/01/16 08:58:56;;;;;;;6.28;1.65;;;18.70;27.90;;;;;;5144045;27;45517;-67
2024/01/16 09:01:24;;;;;;;3.95;1.67;;;18.60;28.00;;;;;;5146057;27;45389;-68
2024/01/16 09:03:52;;;;;;;4.50;1.63;;;18.60;28.30;;;;;;5147277;27;45413;-71
2024/01/16 09:06:19;;;;;;;4.55;1.73;;;18.60;28.20;;;;;;5140442;27;46347;-71
2024/01/16 09:08:46;;;;;;;4.40;1.80;;;18.70;28.20;;;;;;5128392;27;45638;-75
2024/01/16 09:11:13;;;;;;;1.95;1.80;;;18.70;28.00;;;;;;5129490;27;45450;-72
2024/01/16 09:13:40;;;;;;;2.20;1.48;;;18.70;27.90;;;;;;5129694;27;45358;-74
2024/01/16 09:16:06;;;;;;;3.80;1.50;;;18.80;28.00;;;;;;5129719;27;45357;-73
2024/01/16 09:18:35;;;;;;;2.75;1.65;;;18.80;27.90;;;;;;5128864;27;45321;-74
2024/01/16 09:21:02;;;;;;;3.00;1.55;;;18.80;27.90;;;;;;5128965;27;45383;-72
2024/01/16 09:23:29;;;;;;;1.88;1.50;;;18.90;28.00;;;;;;5127851;27;45656;-74
2024/01/16 09:25:55;;;;;;;1.50;1.40;;;18.80;28.40;;;;;;5128655;27;46374;-74
2024/01/16 09:28:22;;;;;;;3.53;1.50;;;18.90;27.90;;;;;;5128923;27;45260;-74
2024/01/16 09:30:49;;;;;;;2.25;1.60;;;18.90;27.90;;;;;;5128759;27;45361;-71
2024/01/16 09:33:16;;;;;;;3.20;1.63;;;18.90;28.30;;;;;;5145991;27;45353;-72
2024/01/16 09:35:45;;;;;;;3.28;2.08;;;18.90;27.80;;;;;;5132737;27;45608;-71
2024/01/16 09:38:12;;;;;;;5.35;1.48;;;18.90;27.70;;;;;;5142342;27;45345;-70
2024/01/16 09:40:39;;;;;;;2.25;1.58;;;18.90;27.80;;;;;;5148208;27;45535;-72
2024/01/16 09:43:08;;;;;;;3.97;1.50;;;19.00;27.80;;;;;;5149030;27;45401;-71
2024/01/16 09:45:35;;;;;;;2.30;1.30;;;19.00;27.80;;;;;;5149481;27;46288;-71
2024/01/16 09:48:02;;;;;;;1.92;1.20;;;19.00;27.80;;;;;;5149240;27;45427;-71
2024/01/16 09:50:28;;;;;;;2.33;1.80;;;19.00;27.80;;;;;;5143846;27;45498;-71
2024/01/16 09:52:58;;;;;;;2.53;1.60;;;19.00;27.80;;;;;;5145780;27;45478;-69
2024/01/16 09:55:24;;;;;;;2.55;1.50;;;19.00;27.80;;;;;;5145945;27;45431;-70
2024/01/16 09:57:52;;;;;;;2.13;1.60;;;19.00;27.80;;;;;;5147134;27;45495;-70
2024/01/16 10:00:19;;;;;;;4.20;1.60;;;19.10;27.80;;;;;;5142516;27;45494;-70
2024/01/16 10:02:46;;;;;;;3.58;1.70;;;19.10;27.80;;;;;;5147606;27;45505;-69
2024/01/16 10:05:13;;;;;;;1.80;1.40;;;19.10;27.80;;;;;;5146029;27;45477;-70
2024/01/16 10:07:40;;;;;;;3.53;1.58;;;19.10;27.70;;;;;;5145891;27;45357;-71
2024/01/16 10:10:10;;;;;;;4.30;1.73;;;19.10;27.80;;;;;;5146709;27;45264;-70
2024/01/16 10:12:37;;;;;;;1.75;1.40;;;19.10;27.80;;;;;;5144155;27;45336;-70
2024/01/16 10:15:05;;;;;;;1.83;1.30;;;19.10;27.80;;;;;;5144712;27;45513;-71
2024/01/16 10:17:39;;;;;;;2.47;1.40;;;19.10;28.20;;;;;;5147159;27;45586;-74
2024/01/16 10:20:13;;;;;;;3.25;1.60;;;19.20;27.70;;;;;;5146557;27;45374;-70
2024/01/16 10:22:40;;;;;;;3.10;1.50;;;19.20;27.70;;;;;;5143920;27;45325;-69
2024/01/16 10:25:08;;;;;;;2.78;1.55;;;19.20;27.90;;;;;;5144425;27;45398;-69
2024/01/16 10:27:36;;;;;;;3.30;1.60;;;19.30;27.90;;;;;;5144182;27;45278;-70
2024/01/16 10:30:04;;;;;;;5.93;1.55;;;19.30;28.00;;;;;;5147984;27;45310;-69
2024/01/16 10:32:32;;;;;;;7.07;1.63;;;19.30;28.00;;;;;;5148779;27;45288;-70
2024/01/16 10:35:06;;;;;;;1.98;1.50;;;19.30;27.90;;;;;;5148022;27;45408;-70
2024/01/16 10:37:42;;;;;;;4.25;1.45;;;19.30;28.00;;;;;;5148374;27;45410;-70
2024/01/16 10:40:09;;;;;;;2.15;1.65;;;19.40;28.10;;;;;;5148098;27;45263;-70
2024/01/16 10:42:38;;;;;;;2.72;1.60;;;19.40;28.00;;;;;;5147896;27;45492;-69
2024/01/16 10:45:06;;;;;;;2.45;1.30;;;19.40;28.00;;;;;;5147416;27;47263;-71
2024/01/16 10:47:36;;;;;;;6.97;1.50;;;19.50;28.00;;;;;;5147243;27;45345;-69
2024/01/16 10:50:05;;;;;;;4.60;1.50;;;19.50;28.00;;;;;;5148364;27;45388;-69
2024/01/16 10:52:32;;;;;;;2.33;1.55;;;19.50;27.90;;;;;;5148460;27;45224;-69
2024/01/16 10:54:59;;;;;;;2.55;1.38;;;19.60;28.00;;;;;;5148112;27;45500;-69
2024/01/16 10:57:26;;;;;;;2.50;1.38;;;19.60;27.90;;;;;;5148427;27;45468;-70
2024/01/16 10:59:58;;;;;;;1.60;1.30;;;19.70;27.90;;;;;;5147990;27;45393;-70
2024/01/16 11:02:25;;;;;;;1.67;1.58;;;19.70;28.00;;;;;;5148094;27;45264;-70
2024/01/16 11:04:57;;;;;;;4.10;1.70;;;19.70;28.00;;;;;;5147818;27;46738;-69
2024/01/16 11:07:26;;;;;;;2.53;1.63;;;19.60;28.10;;;;;;5148068;27;45258;-70
2024/01/16 11:09:52;;;;;;;1.50;1.38;;;19.60;28.10;;;;;;5148162;27;45323;-71
2024/01/16 11:12:22;;;;;;;1.67;1.33;;;19.60;28.20;;;;;;5147948;27;45789;-71
2024/01/16 11:14:50;;;;;;;2.13;1.60;;;19.60;28.20;;;;;;5147670;27;45753;-69
2024/01/16 11:17:20;;;;;;;3.47;1.60;;;19.50;28.20;;;;;;5147808;27;45351;-71
2024/01/16 11:19:47;;;;;;;1.75;1.50;;;19.50;28.30;;;;;;5148383;27;45149;-70
2024/01/16 11:22:14;;;;;;;2.15;1.55;;;19.50;28.40;;;;;;5148754;27;45306;-71
2024/01/16 11:24:42;;;;;;;1.95;1.60;;;19.50;28.40;;;;;;5147256;27;45438;-69
2024/01/16 11:27:08;;;;;;;1.55;1.45;;;19.40;28.40;;;;;;5142672;27;45413;-69
2024/01/16 11:29:35;;;;;;;2.47;1.58;;;19.40;28.40;;;;;;5147854;27;45335;-70
2024/01/16 11:32:04;;;;;;;2.13;1.33;;;19.50;28.50;;;;;;5147100;27;45352;-69
2024/01/16 11:34:58;;;;;;;4.38;1.50;;;19.40;28.50;;;;;;5146185;27;45301;-70
2024/01/16 11:37:27;;;;;;;1.65;1.55;;;19.30;28.60;;;;;;5147353;27;45467;-68
2024/01/16 11:40:10;;;;;;;2.92;1.48;;;19.30;28.80;;;;;;5147820;27;45351;-67
2024/01/16 11:42:42;;;;;;;2.30;1.60;;;19.30;28.80;;;;;;5147244;27;45303;-69
2024/01/16 11:45:10;;;;;;;2.35;1.48;;;19.30;28.90;;;;;;5147400;27;46560;-69
2024/01/16 11:47:36;;;;;;;3.72;1.65;;;19.30;28.90;;;;;;5149089;27;45407;-68
2024/01/16 11:50:11;;;;;;;3.00;1.58;;;19.30;28.90;;;;;;5150612;27;45360;-72
2024/01/16 11:52:42;;;;;;;2.05;1.60;;;19.40;28.80;;;;;;5151176;27;45319;-70
2024/01/16 11:55:27;;;;;;;2.47;1.63;;;19.50;28.70;;;;;;5150709;27;45832;-71
2024/01/16 11:58:12;;;;;;;1.75;1.40;;;19.70;28.70;;;;;;5149899;27;45262;-70
2024/01/16 12:00:39;;;;;;;2.88;1.70;;;19.80;28.60;;;;;;5150852;27;45286;-71
2024/01/16 12:03:06;;;;;;;4.68;1.33;;;19.90;28.50;;;;;;5150276;27;45259;-69
2024/01/16 12:05:34;;;;;;;2.88;1.70;;;20.00;28.40;;;;;;5150749;27;47298;-69
2024/01/16 12:08:03;;;;;;;3.75;1.63;;;20.20;28.30;;;;;;5149652;27;45497;-71
2024/01/16 12:10:30;;;;;;;2.83;1.65;;;20.20;28.20;;;;;;5150199;27;45321;-71
2024/01/16 12:12:58;;;;;;;1.77;1.45;;;20.30;28.30;;;;;;5151491;27;45558;-71
2024/01/16 12:15:25;;;;;;;4.05;1.42;;;20.40;28.20;;;;;;5151141;27;46374;-71
2024/01/16 12:17:54;;;;;;;3.53;1.42;;;20.50;28.10;;;;;;5150318;27;45238;-71
2024/01/16 12:20:22;;;;;;;2.80;1.75;;;20.50;28.10;;;;;;5150099;27;45350;-73
2024/01/16 12:22:55;;;;;;;2.67;1.80;;;20.60;28.00;;;;;;5150996;27;45308;-71
2024/01/16 12:25:22;;;;;;;2.65;1.40;;;20.60;28.00;;;;;;5150722;27;48310;-71
2024/01/16 12:27:56;;;;;;;3.55;1.48;;;20.60;27.90;;;;;;5150211;27;45378;-70
2024/01/16 12:30:24;;;;;;;5.18;1.65;;;20.60;28.00;;;;;;5150865;27;45414;-70
2024/01/16 12:32:51;;;;;;;2.35;1.38;;;20.70;28.00;;;;;;5150764;27;45359;-69
2024/01/16 12:35:21;;;;;;;5.15;1.60;;;20.70;28.00;;;;;;5150243;27;45621;-71
2024/01/16 12:38:00;;;;;;;2.83;1.60;;;20.70;28.00;;;;;;5150290;27;45386;-70
2024/01/16 12:40:27;;;;;;;3.17;1.20;;;20.70;28.00;;;;;;5150311;27;45239;-70
2024/01/16 12:42:54;;;;;;;1.95;1.60;;;20.70;28.00;;;;;;5150959;27;45235;-68
2024/01/16 12:45:21;;;;;;;4.65;1.50;;;20.70;28.00;;;;;;5150334;27;46330;-70
2024/01/16 12:47:51;;;;;;;1.80;1.60;;;20.70;28.00;;;;;;5150700;27;45370;-68
2024/01/16 12:50:21;;;;;;;2.90;1.30;;;20.60;28.00;;;;;;5150648;27;45132;-68